sensor_id;sensor_type;location;lat;lon;timestamp;P1;durP1;ratioP1;P2;durP2;ratioP2
32399;SDS011;45045;45.440;9.178;2024-01-30T00:02:21;64.47;;;38.00;;
32399;SDS011;45045;45.440;9.178;2024-01-30T00:04:46;97.85;;;36.33;;
32399;SDS011;45045;45.440;9.178;2024-01-30T00:07:12;90.15;;;36.83;;
32399;SDS011;45045;45.440;9.178;2024-01-30T00:09:38;82.40;;;37.00;;
32399;SDS011;45045;45.440;9.178;2024-01-30T00:12:04;82.07;;;38.67;;
32399;SDS011;45045;45.440;9.178;2024-01-30T00:14:31;63.80;;;37.90;;
32399;SDS011;45045;45.440;9.178;2024-01-30T00:16:56;91.53;;;38.10;;
32399;SDS011;45045;45.440;9.178;2024-01-30T00:19:22;109.35;;;37.20;;
32399;SDS011;45045;45.440;9.178;2024-01-30T00:21:48;62.80;;;37.60;;
32399;SDS011;45045;45.440;9.178;2024-01-30T00:24:13;78.20;;;39.47;;
32399;SDS011;45045;45.440;9.178;2024-01-30T00:26:39;131.43;;;37.88;;
32399;SDS011;45045;45.440;9.178;2024-01-30T00:29:05;214.82;;;40.80;;
32399;SDS011;45045;45.440;9.178;2024-01-30T00:31:33;73.47;;;39.30;;
32399;SDS011;45045;45.440;9.178;2024-01-30T00:33:59;105.85;;;38.75;;
32399;SDS011;45045;45.440;9.178;2024-01-30T00:36:25;121.95;;;39.97;;
32399;SDS011;45045;45.440;9.178;2024-01-30T00:38:50;123.25;;;40.33;;
32399;SDS011;45045;45.440;9.178;2024-01-30T00:41:18;130.65;;;38.95;;
32399;SDS011;45045;45.440;9.178;2024-01-30T00:43:44;84.35;;;40.92;;
32399;SDS011;45045;45.440;9.178;2024-01-30T00:46:10;115.60;;;41.08;;
32399;SDS011;45045;45.440;9.178;2024-01-30T00:48:35;96.22;;;40.00;;
32399;SDS011;45045;45.440;9.178;2024-01-30T00:51:01;107.32;;;41.42;;
32399;SDS011;45045;45.440;9.178;2024-01-30T00:53:26;80.47;;;40.47;;
32399;SDS011;45045;45.440;9.178;2024-01-30T00:55:52;102.20;;;42.03;;
32399;SDS011;45045;45.440;9.178;2024-01-30T00:58:17;86.80;;;42.47;;
32399;SDS011;45045;45.440;9.178;2024-01-30T01:00:44;95.22;;;42.42;;
32399;SDS011;45045;45.440;9.178;2024-01-30T01:03:10;73.57;;;41.78;;
32399;SDS011;45045;45.440;9.178;2024-01-30T01:05:35;97.53;;;43.60;;
32399;SDS011;45045;45.440;9.178;2024-01-30T01:08:01;77.10;;;40.65;;
32399;SDS011;45045;45.440;9.178;2024-01-30T01:10:27;86.93;;;41.67;;
32399;SDS011;45045;45.440;9.178;2024-01-30T01:12:53;95.53;;;43.08;;
32399;SDS011;45045;45.440;9.178;2024-01-30T01:15:18;154.63;;;44.08;;
32399;SDS011;45045;45.440;9.178;2024-01-30T01:17:44;85.95;;;40.05;;
32399;SDS011;45045;45.440;9.178;2024-01-30T01:20:10;122.38;;;39.40;;
32399;SDS011;45045;45.440;9.178;2024-01-30T01:22:36;130.95;;;40.10;;
32399;SDS011;45045;45.440;9.178;2024-01-30T01:25:03;102.93;;;42.80;;
32399;SDS011;45045;45.440;9.178;2024-01-30T01:27:32;74.88;;;40.35;;
32399;SDS011;45045;45.440;9.178;2024-01-30T01:29:59;160.02;;;41.13;;
32399;SDS011;45045;45.440;9.178;2024-01-30T01:32:25;106.10;;;40.25;;
32399;SDS011;45045;45.440;9.178;2024-01-30T01:34:51;141.82;;;40.03;;
32399;SDS011;45045;45.440;9.178;2024-01-30T01:37:16;73.22;;;39.17;;
32399;SDS011;45045;45.440;9.178;2024-01-30T01:39:42;108.78;;;40.35;;
32399;SDS011;45045;45.440;9.178;2024-01-30T01:42:07;81.32;;;39.53;;
32399;SDS011;45045;45.440;9.178;2024-01-30T01:44:33;151.52;;;40.80;;
32399;SDS011;45045;45.440;9.178;2024-01-30T01:46:58;80.32;;;40.40;;
32399;SDS011;45045;45.440;9.178;2024-01-30T01:49:25;125.65;;;40.45;;
32399;SDS011;45045;45.440;9.178;2024-01-30T01:51:53;103.72;;;40.35;;
32399;SDS011;45045;45.440;9.178;2024-01-30T01:54:21;120.78;;;41.47;;
32399;SDS011;45045;45.440;9.178;2024-01-30T01:56:48;95.70;;;38.58;;
32399;SDS011;45045;45.440;9.178;2024-01-30T01:59:14;124.25;;;38.60;;
32399;SDS011;45045;45.440;9.178;2024-01-30T02:01:40;205.77;;;43.75;;
32399;SDS011;45045;45.440;9.178;2024-01-30T02:04:07;1024.22;;;102.35;;
32399;SDS011;45045;45.440;9.178;2024-01-30T02:06:33;112.80;;;36.50;;
32399;SDS011;45045;45.440;9.178;2024-01-30T02:08:59;137.38;;;38.25;;
32399;SDS011;45045;45.440;9.178;2024-01-30T02:11:25;109.70;;;37.35;;
32399;SDS011;45045;45.440;9.178;2024-01-30T02:13:52;86.68;;;35.65;;
32399;SDS011;45045;45.440;9.178;2024-01-30T02:16:17;91.85;;;35.90;;
32399;SDS011;45045;45.440;9.178;2024-01-30T02:18:43;99.65;;;36.50;;
32399;SDS011;45045;45.440;9.178;2024-01-30T02:21:14;102.63;;;36.65;;
32399;SDS011;45045;45.440;9.178;2024-01-30T02:23:43;150.98;;;36.13;;
32399;SDS011;45045;45.440;9.178;2024-01-30T02:26:11;213.27;;;34.50;;
32399;SDS011;45045;45.440;9.178;2024-01-30T02:28:37;115.75;;;34.28;;
32399;SDS011;45045;45.440;9.178;2024-01-30T02:31:03;141.07;;;33.97;;
32399;SDS011;45045;45.440;9.178;2024-01-30T02:33:29;115.30;;;34.58;;
32399;SDS011;45045;45.440;9.178;2024-01-30T02:35:54;92.72;;;31.08;;
32399;SDS011;45045;45.440;9.178;2024-01-30T02:38:20;110.00;;;33.60;;
32399;SDS011;45045;45.440;9.178;2024-01-30T02:40:46;71.88;;;31.55;;
32399;SDS011;45045;45.440;9.178;2024-01-30T02:43:11;122.60;;;33.00;;
32399;SDS011;45045;45.440;9.178;2024-01-30T02:45:37;105.65;;;32.97;;
32399;SDS011;45045;45.440;9.178;2024-01-30T02:48:03;77.30;;;31.30;;
32399;SDS011;45045;45.440;9.178;2024-01-30T02:50:29;91.40;;;32.38;;
32399;SDS011;45045;45.440;9.178;2024-01-30T02:52:54;134.52;;;31.23;;
32399;SDS011;45045;45.440;9.178;2024-01-30T02:55:20;108.28;;;30.23;;
32399;SDS011;45045;45.440;9.178;2024-01-30T02:57:46;101.85;;;30.48;;
32399;SDS011;45045;45.440;9.178;2024-01-30T03:00:11;99.90;;;29.83;;
32399;SDS011;45045;45.440;9.178;2024-01-30T03:02:37;96.50;;;29.00;;
32399;SDS011;45045;45.440;9.178;2024-01-30T03:05:04;96.95;;;30.52;;
32399;SDS011;45045;45.440;9.178;2024-01-30T03:07:30;97.35;;;29.45;;
32399;SDS011;45045;45.440;9.178;2024-01-30T03:09:56;125.65;;;31.63;;
32399;SDS011;45045;45.440;9.178;2024-01-30T03:12:22;138.82;;;30.52;;
32399;SDS011;45045;45.440;9.178;2024-01-30T03:14:48;111.43;;;31.13;;
32399;SDS011;45045;45.440;9.178;2024-01-30T03:17:14;109.68;;;29.98;;
32399;SDS011;45045;45.440;9.178;2024-01-30T03:19:40;76.00;;;31.05;;
32399;SDS011;45045;45.440;9.178;2024-01-30T03:22:05;149.32;;;30.92;;
32399;SDS011;45045;45.440;9.178;2024-01-30T03:24:31;108.28;;;28.88;;
32399;SDS011;45045;45.440;9.178;2024-01-30T03:26:57;121.22;;;30.95;;
32399;SDS011;45045;45.440;9.178;2024-01-30T03:29:22;114.10;;;31.23;;
32399;SDS011;45045;45.440;9.178;2024-01-30T03:31:48;112.93;;;29.73;;
32399;SDS011;45045;45.440;9.178;2024-01-30T03:34:13;98.38;;;30.65;;
32399;SDS011;45045;45.440;9.178;2024-01-30T03:36:39;88.45;;;29.63;;
32399;SDS011;45045;45.440;9.178;2024-01-30T03:39:05;115.80;;;30.80;;
32399;SDS011;45045;45.440;9.178;2024-01-30T03:41:31;77.88;;;28.25;;
32399;SDS011;45045;45.440;9.178;2024-01-30T03:43:57;84.07;;;29.73;;
32399;SDS011;45045;45.440;9.178;2024-01-30T03:46:22;86.40;;;28.63;;
32399;SDS011;45045;45.440;9.178;2024-01-30T03:48:48;100.07;;;28.20;;
32399;SDS011;45045;45.440;9.178;2024-01-30T03:51:14;118.25;;;28.80;;
32399;SDS011;45045;45.440;9.178;2024-01-30T03:53:44;123.82;;;28.73;;
32399;SDS011;45045;45.440;9.178;2024-01-30T03:56:11;137.35;;;31.00;;
32399;SDS011;45045;45.440;9.178;2024-01-30T03:58:38;104.63;;;29.30;;
32399;SDS011;45045;45.440;9.178;2024-01-30T04:01:04;155.35;;;30.58;;
32399;SDS011;45045;45.440;9.178;2024-01-30T04:03:30;116.43;;;30.27;;
32399;SDS011;45045;45.440;9.178;2024-01-30T04:05:55;110.38;;;27.95;;
32399;SDS011;45045;45.440;9.178;2024-01-30T04:08:21;101.63;;;30.10;;
32399;SDS011;45045;45.440;9.178;2024-01-30T04:10:47;127.47;;;30.15;;
32399;SDS011;45045;45.440;9.178;2024-01-30T04:13:13;132.45;;;29.30;;
32399;SDS011;45045;45.440;9.178;2024-01-30T04:15:38;91.03;;;28.80;;
32399;SDS011;45045;45.440;9.178;2024-01-30T04:18:04;105.18;;;29.02;;
32399;SDS011;45045;45.440;9.178;2024-01-30T04:20:30;67.35;;;28.42;;
32399;SDS011;45045;45.440;9.178;2024-01-30T04:22:56;76.68;;;28.95;;
32399;SDS011;45045;45.440;9.178;2024-01-30T04:25:22;89.40;;;26.85;;
32399;SDS011;45045;45.440;9.178;2024-01-30T04:27:47;70.43;;;26.55;;
32399;SDS011;45045;45.440;9.178;2024-01-30T04:30:13;75.82;;;28.38;;
32399;SDS011;45045;45.440;9.178;2024-01-30T04:32:39;60.58;;;27.30;;
32399;SDS011;45045;45.440;9.178;2024-01-30T04:35:05;89.32;;;26.15;;
32399;SDS011;45045;45.440;9.178;2024-01-30T04:37:31;93.35;;;26.23;;
32399;SDS011;45045;45.440;9.178;2024-01-30T04:39:56;78.22;;;26.80;;
32399;SDS011;45045;45.440;9.178;2024-01-30T04:42:22;89.50;;;25.30;;
32399;SDS011;45045;45.440;9.178;2024-01-30T04:44:48;86.50;;;25.73;;
32399;SDS011;45045;45.440;9.178;2024-01-30T04:47:14;89.65;;;25.17;;
32399;SDS011;45045;45.440;9.178;2024-01-30T04:49:39;73.82;;;25.30;;
32399;SDS011;45045;45.440;9.178;2024-01-30T04:52:05;62.70;;;25.17;;
32399;SDS011;45045;45.440;9.178;2024-01-30T04:54:31;73.93;;;24.58;;
32399;SDS011;45045;45.440;9.178;2024-01-30T04:56:57;57.83;;;24.60;;
32399;SDS011;45045;45.440;9.178;2024-01-30T04:59:23;54.88;;;24.20;;
32399;SDS011;45045;45.440;9.178;2024-01-30T05:01:49;47.30;;;26.38;;
32399;SDS011;45045;45.440;9.178;2024-01-30T05:04:15;55.80;;;24.38;;
32399;SDS011;45045;45.440;9.178;2024-01-30T05:06:40;110.43;;;25.08;;
32399;SDS011;45045;45.440;9.178;2024-01-30T05:09:06;54.40;;;23.20;;
32399;SDS011;45045;45.440;9.178;2024-01-30T05:11:36;78.50;;;24.88;;
32399;SDS011;45045;45.440;9.178;2024-01-30T05:14:06;41.20;;;24.90;;
32399;SDS011;45045;45.440;9.178;2024-01-30T05:16:32;84.07;;;25.20;;
32399;SDS011;45045;45.440;9.178;2024-01-30T05:18:58;53.88;;;24.77;;
32399;SDS011;45045;45.440;9.178;2024-01-30T05:21:24;53.50;;;25.63;;
32399;SDS011;45045;45.440;9.178;2024-01-30T05:23:49;43.05;;;25.95;;
32399;SDS011;45045;45.440;9.178;2024-01-30T05:26:15;54.78;;;25.20;;
32399;SDS011;45045;45.440;9.178;2024-01-30T05:28:41;57.20;;;24.45;;
32399;SDS011;45045;45.440;9.178;2024-01-30T05:31:09;56.60;;;25.02;;
32399;SDS011;45045;45.440;9.178;2024-01-30T05:33:35;74.78;;;25.15;;
32399;SDS011;45045;45.440;9.178;2024-01-30T05:36:01;84.13;;;24.65;;
32399;SDS011;45045;45.440;9.178;2024-01-30T05:38:27;67.80;;;24.92;;
32399;SDS011;45045;45.440;9.178;2024-01-30T05:40:52;58.17;;;24.65;;
32399;SDS011;45045;45.440;9.178;2024-01-30T05:43:18;75.97;;;25.27;;
32399;SDS011;45045;45.440;9.178;2024-01-30T05:45:44;69.68;;;25.23;;
32399;SDS011;45045;45.440;9.178;2024-01-30T05:48:09;65.72;;;25.17;;
32399;SDS011;45045;45.440;9.178;2024-01-30T05:50:35;55.58;;;26.25;;
32399;SDS011;45045;45.440;9.178;2024-01-30T05:53:00;64.78;;;28.20;;
32399;SDS011;45045;45.440;9.178;2024-01-30T05:55:26;62.05;;;27.33;;
32399;SDS011;45045;45.440;9.178;2024-01-30T05:57:52;80.18;;;26.45;;
32399;SDS011;45045;45.440;9.178;2024-01-30T06:00:18;66.72;;;27.35;;
32399;SDS011;45045;45.440;9.178;2024-01-30T06:02:43;65.05;;;27.60;;
32399;SDS011;45045;45.440;9.178;2024-01-30T06:05:09;64.30;;;26.90;;
32399;SDS011;45045;45.440;9.178;2024-01-30T06:07:35;65.10;;;28.13;;
32399;SDS011;45045;45.440;9.178;2024-01-30T06:10:00;58.65;;;27.33;;
32399;SDS011;45045;45.440;9.178;2024-01-30T06:12:27;46.85;;;27.63;;
32399;SDS011;45045;45.440;9.178;2024-01-30T06:14:53;48.90;;;27.42;;
32399;SDS011;45045;45.440;9.178;2024-01-30T06:17:21;52.58;;;28.88;;
32399;SDS011;45045;45.440;9.178;2024-01-30T06:19:47;58.47;;;28.52;;
32399;SDS011;45045;45.440;9.178;2024-01-30T06:22:13;57.65;;;30.65;;
32399;SDS011;45045;45.440;9.178;2024-01-30T06:24:39;57.83;;;30.77;;
32399;SDS011;45045;45.440;9.178;2024-01-30T06:27:04;58.38;;;30.05;;
32399;SDS011;45045;45.440;9.178;2024-01-30T06:29:30;59.90;;;31.63;;
32399;SDS011;45045;45.440;9.178;2024-01-30T06:31:55;57.28;;;32.15;;
32399;SDS011;45045;45.440;9.178;2024-01-30T06:34:22;74.50;;;32.88;;
32399;SDS011;45045;45.440;9.178;2024-01-30T06:36:47;58.92;;;33.25;;
32399;SDS011;45045;45.440;9.178;2024-01-30T06:39:13;65.30;;;35.05;;
32399;SDS011;45045;45.440;9.178;2024-01-30T06:41:39;66.00;;;33.97;;
32399;SDS011;45045;45.440;9.178;2024-01-30T06:44:04;65.45;;;34.80;;
32399;SDS011;45045;45.440;9.178;2024-01-30T06:46:31;66.72;;;35.45;;
32399;SDS011;45045;45.440;9.178;2024-01-30T06:48:57;63.60;;;36.25;;
32399;SDS011;45045;45.440;9.178;2024-01-30T06:51:23;66.55;;;37.83;;
32399;SDS011;45045;45.440;9.178;2024-01-30T06:53:48;61.00;;;35.80;;
32399;SDS011;45045;45.440;9.178;2024-01-30T06:56:14;59.08;;;35.45;;
32399;SDS011;45045;45.440;9.178;2024-01-30T06:58:40;60.08;;;36.03;;
32399;SDS011;45045;45.440;9.178;2024-01-30T07:01:06;58.08;;;34.53;;
32399;SDS011;45045;45.440;9.178;2024-01-30T07:03:31;57.45;;;35.33;;
32399;SDS011;45045;45.440;9.178;2024-01-30T07:05:57;57.30;;;34.38;;
32399;SDS011;45045;45.440;9.178;2024-01-30T07:08:23;55.95;;;35.45;;
32399;SDS011;45045;45.440;9.178;2024-01-30T07:10:49;52.85;;;34.08;;
32399;SDS011;45045;45.440;9.178;2024-01-30T07:13:15;53.58;;;34.15;;
32399;SDS011;45045;45.440;9.178;2024-01-30T07:15:41;57.45;;;34.35;;
32399;SDS011;45045;45.440;9.178;2024-01-30T07:18:07;66.93;;;36.45;;
32399;SDS011;45045;45.440;9.178;2024-01-30T07:20:34;64.20;;;38.08;;
32399;SDS011;45045;45.440;9.178;2024-01-30T07:23:00;65.95;;;37.72;;
32399;SDS011;45045;45.440;9.178;2024-01-30T07:25:26;68.95;;;37.45;;
32399;SDS011;45045;45.440;9.178;2024-01-30T07:27:52;64.18;;;37.13;;
32399;SDS011;45045;45.440;9.178;2024-01-30T07:30:19;67.60;;;37.50;;
32399;SDS011;45045;45.440;9.178;2024-01-30T07:32:45;63.33;;;36.60;;
32399;SDS011;45045;45.440;9.178;2024-01-30T07:35:11;69.55;;;37.55;;
32399;SDS011;45045;45.440;9.178;2024-01-30T07:37:37;64.97;;;34.85;;
32399;SDS011;45045;45.440;9.178;2024-01-30T07:40:03;60.20;;;34.33;;
32399;SDS011;45045;45.440;9.178;2024-01-30T07:42:29;69.80;;;34.72;;
32399;SDS011;45045;45.440;9.178;2024-01-30T07:44:55;68.63;;;33.60;;
32399;SDS011;45045;45.440;9.178;2024-01-30T07:47:20;59.92;;;34.08;;
32399;SDS011;45045;45.440;9.178;2024-01-30T07:49:46;66.72;;;35.67;;
32399;SDS011;45045;45.440;9.178;2024-01-30T07:52:12;61.58;;;34.95;;
32399;SDS011;45045;45.440;9.178;2024-01-30T07:54:38;58.30;;;35.05;;
32399;SDS011;45045;45.440;9.178;2024-01-30T07:57:04;59.88;;;34.70;;
32399;SDS011;45045;45.440;9.178;2024-01-30T07:59:30;61.35;;;34.25;;
32399;SDS011;45045;45.440;9.178;2024-01-30T08:01:55;58.00;;;32.40;;
32399;SDS011;45045;45.440;9.178;2024-01-30T08:04:21;62.97;;;34.85;;
32399;SDS011;45045;45.440;9.178;2024-01-30T08:06:47;68.78;;;34.08;;
32399;SDS011;45045;45.440;9.178;2024-01-30T08:09:12;54.17;;;34.25;;
32399;SDS011;45045;45.440;9.178;2024-01-30T08:11:39;72.45;;;37.33;;
32399;SDS011;45045;45.440;9.178;2024-01-30T08:14:05;58.15;;;35.38;;
32399;SDS011;45045;45.440;9.178;2024-01-30T08:16:30;69.95;;;38.00;;
32399;SDS011;45045;45.440;9.178;2024-01-30T08:18:56;59.88;;;35.78;;
32399;SDS011;45045;45.440;9.178;2024-01-30T08:21:22;63.40;;;36.17;;
32399;SDS011;45045;45.440;9.178;2024-01-30T08:23:48;62.17;;;36.00;;
32399;SDS011;45045;45.440;9.178;2024-01-30T08:26:14;65.07;;;37.80;;
32399;SDS011;45045;45.440;9.178;2024-01-30T08:28:39;59.45;;;36.60;;
32399;SDS011;45045;45.440;9.178;2024-01-30T08:31:05;60.85;;;36.08;;
32399;SDS011;45045;45.440;9.178;2024-01-30T08:33:30;61.70;;;37.15;;
32399;SDS011;45045;45.440;9.178;2024-01-30T08:35:56;63.75;;;36.70;;
32399;SDS011;45045;45.440;9.178;2024-01-30T08:38:22;63.53;;;36.03;;
32399;SDS011;45045;45.440;9.178;2024-01-30T08:40:48;57.92;;;36.17;;
32399;SDS011;45045;45.440;9.178;2024-01-30T08:43:13;56.78;;;37.20;;
32399;SDS011;45045;45.440;9.178;2024-01-30T08:45:40;62.30;;;36.65;;
32399;SDS011;45045;45.440;9.178;2024-01-30T08:48:06;60.47;;;36.92;;
32399;SDS011;45045;45.440;9.178;2024-01-30T08:50:32;56.85;;;34.83;;
32399;SDS011;45045;45.440;9.178;2024-01-30T08:52:58;56.53;;;34.95;;
32399;SDS011;45045;45.440;9.178;2024-01-30T08:55:24;58.42;;;35.85;;
32399;SDS011;45045;45.440;9.178;2024-01-30T08:57:49;53.42;;;34.47;;
32399;SDS011;45045;45.440;9.178;2024-01-30T09:00:17;57.10;;;34.10;;
32399;SDS011;45045;45.440;9.178;2024-01-30T09:02:42;52.92;;;35.00;;
32399;SDS011;45045;45.440;9.178;2024-01-30T09:05:08;56.05;;;35.63;;
32399;SDS011;45045;45.440;9.178;2024-01-30T09:07:34;78.57;;;49.05;;
32399;SDS011;45045;45.440;9.178;2024-01-30T09:09:59;79.75;;;51.78;;
32399;SDS011;45045;45.440;9.178;2024-01-30T09:12:25;59.90;;;38.05;;
32399;SDS011;45045;45.440;9.178;2024-01-30T09:14:51;56.22;;;35.47;;
32399;SDS011;45045;45.440;9.178;2024-01-30T09:17:16;55.72;;;36.38;;
32399;SDS011;45045;45.440;9.178;2024-01-30T09:19:42;58.10;;;36.15;;
32399;SDS011;45045;45.440;9.178;2024-01-30T09:22:07;62.30;;;40.33;;
32399;SDS011;45045;45.440;9.178;2024-01-30T09:24:33;62.58;;;37.92;;
32399;SDS011;45045;45.440;9.178;2024-01-30T09:26:59;60.53;;;37.08;;
32399;SDS011;45045;45.440;9.178;2024-01-30T09:29:25;57.65;;;37.67;;
32399;SDS011;45045;45.440;9.178;2024-01-30T09:31:51;52.90;;;36.72;;
32399;SDS011;45045;45.440;9.178;2024-01-30T09:34:17;56.63;;;36.70;;
32399;SDS011;45045;45.440;9.178;2024-01-30T09:36:42;61.45;;;37.65;;
32399;SDS011;45045;45.440;9.178;2024-01-30T09:39:08;59.20;;;36.75;;
32399;SDS011;45045;45.440;9.178;2024-01-30T09:41:34;56.95;;;37.20;;
32399;SDS011;45045;45.440;9.178;2024-01-30T09:44:05;58.60;;;39.20;;
32399;SDS011;45045;45.440;9.178;2024-01-30T09:46:32;67.25;;;42.42;;
32399;SDS011;45045;45.440;9.178;2024-01-30T09:49:00;76.80;;;47.28;;
32399;SDS011;45045;45.440;9.178;2024-01-30T09:51:27;77.35;;;46.47;;
32399;SDS011;45045;45.440;9.178;2024-01-30T09:53:54;81.47;;;50.85;;
32399;SDS011;45045;45.440;9.178;2024-01-30T09:56:21;80.28;;;49.55;;
32399;SDS011;45045;45.440;9.178;2024-01-30T09:58:47;81.25;;;50.42;;
32399;SDS011;45045;45.440;9.178;2024-01-30T10:01:13;85.18;;;48.67;;
32399;SDS011;45045;45.440;9.178;2024-01-30T10:03:45;69.78;;;44.25;;
32399;SDS011;45045;45.440;9.178;2024-01-30T10:06:10;80.97;;;45.47;;
32399;SDS011;45045;45.440;9.178;2024-01-30T10:08:37;71.57;;;45.28;;
32399;SDS011;45045;45.440;9.178;2024-01-30T10:11:02;77.80;;;45.25;;
32399;SDS011;45045;45.440;9.178;2024-01-30T10:13:28;72.18;;;46.35;;
32399;SDS011;45045;45.440;9.178;2024-01-30T10:15:54;74.50;;;47.63;;
32399;SDS011;45045;45.440;9.178;2024-01-30T10:18:22;78.47;;;46.75;;
32399;SDS011;45045;45.440;9.178;2024-01-30T10:20:48;72.35;;;44.88;;
32399;SDS011;45045;45.440;9.178;2024-01-30T10:23:14;69.30;;;42.92;;
32399;SDS011;45045;45.440;9.178;2024-01-30T10:25:40;71.32;;;45.45;;
32399;SDS011;45045;45.440;9.178;2024-01-30T10:28:05;66.53;;;45.80;;
32399;SDS011;45045;45.440;9.178;2024-01-30T10:30:31;72.13;;;46.42;;
32399;SDS011;45045;45.440;9.178;2024-01-30T10:32:57;66.95;;;44.67;;
32399;SDS011;45045;45.440;9.178;2024-01-30T10:35:22;65.82;;;44.95;;
32399;SDS011;45045;45.440;9.178;2024-01-30T10:37:48;68.22;;;43.35;;
32399;SDS011;45045;45.440;9.178;2024-01-30T10:40:14;67.20;;;44.45;;
32399;SDS011;45045;45.440;9.178;2024-01-30T10:42:44;64.75;;;44.30;;
32399;SDS011;45045;45.440;9.178;2024-01-30T10:45:11;69.30;;;44.70;;
32399;SDS011;45045;45.440;9.178;2024-01-30T10:47:56;77.20;;;46.83;;
32399;SDS011;45045;45.440;9.178;2024-01-30T10:50:25;82.05;;;50.20;;
32399;SDS011;45045;45.440;9.178;2024-01-30T10:52:51;79.22;;;51.65;;
32399;SDS011;45045;45.440;9.178;2024-01-30T10:55:17;79.43;;;51.65;;
32399;SDS011;45045;45.440;9.178;2024-01-30T10:57:44;80.90;;;53.13;;
32399;SDS011;45045;45.440;9.178;2024-01-30T11:00:11;76.80;;;53.20;;
32399;SDS011;45045;45.440;9.178;2024-01-30T11:02:41;82.27;;;56.90;;
32399;SDS011;45045;45.440;9.178;2024-01-30T11:05:09;95.22;;;62.83;;
32399;SDS011;45045;45.440;9.178;2024-01-30T11:07:35;110.70;;;75.18;;
32399;SDS011;45045;45.440;9.178;2024-01-30T11:10:02;111.80;;;75.22;;
32399;SDS011;45045;45.440;9.178;2024-01-30T11:12:29;107.45;;;74.90;;
32399;SDS011;45045;45.440;9.178;2024-01-30T11:15:06;112.55;;;77.90;;
32399;SDS011;45045;45.440;9.178;2024-01-30T11:18:12;115.32;;;78.25;;
32399;SDS011;45045;45.440;9.178;2024-01-30T11:20:31;116.03;;;78.07;;
32399;SDS011;45045;45.440;9.178;2024-01-30T11:22:57;118.43;;;82.35;;
32399;SDS011;45045;45.440;9.178;2024-01-30T11:25:24;123.63;;;85.38;;
32399;SDS011;45045;45.440;9.178;2024-01-30T11:27:51;118.50;;;83.70;;
32399;SDS011;45045;45.440;9.178;2024-01-30T11:30:25;117.60;;;81.00;;
32399;SDS011;45045;45.440;9.178;2024-01-30T11:33:01;113.47;;;79.82;;
32399;SDS011;45045;45.440;9.178;2024-01-30T11:35:36;110.47;;;77.55;;
32399;SDS011;45045;45.440;9.178;2024-01-30T11:38:04;112.82;;;75.03;;
32399;SDS011;45045;45.440;9.178;2024-01-30T11:40:31;104.68;;;72.63;;
32399;SDS011;45045;45.440;9.178;2024-01-30T11:43:01;101.25;;;67.82;;
32399;SDS011;45045;45.440;9.178;2024-01-30T11:45:30;79.90;;;56.13;;
32399;SDS011;45045;45.440;9.178;2024-01-30T11:47:56;78.45;;;54.22;;
32399;SDS011;45045;45.440;9.178;2024-01-30T11:50:22;79.15;;;51.05;;
32399;SDS011;45045;45.440;9.178;2024-01-30T11:52:49;77.63;;;51.15;;
32399;SDS011;45045;45.440;9.178;2024-01-30T11:55:15;78.47;;;51.08;;
32399;SDS011;45045;45.440;9.178;2024-01-30T11:57:42;74.88;;;49.83;;
32399;SDS011;45045;45.440;9.178;2024-01-30T12:00:15;73.72;;;50.42;;
32399;SDS011;45045;45.440;9.178;2024-01-30T12:02:49;71.72;;;49.38;;
32399;SDS011;45045;45.440;9.178;2024-01-30T12:05:27;64.78;;;46.70;;
32399;SDS011;45045;45.440;9.178;2024-01-30T12:07:53;65.82;;;46.63;;
32399;SDS011;45045;45.440;9.178;2024-01-30T12:10:18;66.78;;;45.22;;
32399;SDS011;45045;45.440;9.178;2024-01-30T12:12:49;60.30;;;42.55;;
32399;SDS011;45045;45.440;9.178;2024-01-30T12:15:15;62.92;;;44.70;;
32399;SDS011;45045;45.440;9.178;2024-01-30T12:17:41;62.97;;;43.85;;
32399;SDS011;45045;45.440;9.178;2024-01-30T12:22:38;59.25;;;42.95;;
32399;SDS011;45045;45.440;9.178;2024-01-30T12:25:08;61.13;;;42.45;;
32399;SDS011;45045;45.440;9.178;2024-01-30T12:27:39;62.43;;;42.77;;
32399;SDS011;45045;45.440;9.178;2024-01-30T12:30:07;57.75;;;42.70;;
32399;SDS011;45045;45.440;9.178;2024-01-30T12:32:35;56.55;;;42.28;;
32399;SDS011;45045;45.440;9.178;2024-01-30T12:35:01;58.38;;;42.03;;
32399;SDS011;45045;45.440;9.178;2024-01-30T12:37:27;55.78;;;40.85;;
32399;SDS011;45045;45.440;9.178;2024-01-30T12:39:54;57.75;;;41.33;;
32399;SDS011;45045;45.440;9.178;2024-01-30T12:42:20;59.63;;;41.75;;
32399;SDS011;45045;45.440;9.178;2024-01-30T12:44:49;58.67;;;43.28;;
32399;SDS011;45045;45.440;9.178;2024-01-30T12:47:15;59.58;;;43.08;;
32399;SDS011;45045;45.440;9.178;2024-01-30T12:49:44;56.00;;;42.28;;
32399;SDS011;45045;45.440;9.178;2024-01-30T12:52:13;60.65;;;43.42;;
32399;SDS011;45045;45.440;9.178;2024-01-30T12:54:41;53.08;;;41.17;;
32399;SDS011;45045;45.440;9.178;2024-01-30T12:57:07;56.47;;;42.10;;
32399;SDS011;45045;45.440;9.178;2024-01-30T12:59:33;56.20;;;42.25;;
32399;SDS011;45045;45.440;9.178;2024-01-30T13:02:00;57.55;;;41.65;;
32399;SDS011;45045;45.440;9.178;2024-01-30T13:04:26;59.55;;;41.97;;
32399;SDS011;45045;45.440;9.178;2024-01-30T13:06:53;58.60;;;41.58;;
32399;SDS011;45045;45.440;9.178;2024-01-30T13:09:18;56.78;;;42.00;;
32399;SDS011;45045;45.440;9.178;2024-01-30T13:11:44;55.30;;;42.47;;
32399;SDS011;45045;45.440;9.178;2024-01-30T13:14:10;57.47;;;41.97;;
32399;SDS011;45045;45.440;9.178;2024-01-30T13:16:35;60.72;;;44.67;;
32399;SDS011;45045;45.440;9.178;2024-01-30T13:19:01;54.47;;;41.88;;
32399;SDS011;45045;45.440;9.178;2024-01-30T13:21:27;59.50;;;43.40;;
32399;SDS011;45045;45.440;9.178;2024-01-30T13:23:53;59.47;;;44.08;;
32399;SDS011;45045;45.440;9.178;2024-01-30T13:26:19;61.47;;;45.15;;
32399;SDS011;45045;45.440;9.178;2024-01-30T13:28:45;60.15;;;43.72;;
32399;SDS011;45045;45.440;9.178;2024-01-30T13:31:11;60.95;;;45.10;;
32399;SDS011;45045;45.440;9.178;2024-01-30T13:33:38;63.10;;;45.47;;
32399;SDS011;45045;45.440;9.178;2024-01-30T13:36:03;62.58;;;46.30;;
32399;SDS011;45045;45.440;9.178;2024-01-30T13:38:29;64.85;;;46.95;;
32399;SDS011;45045;45.440;9.178;2024-01-30T13:40:55;62.08;;;45.00;;
32399;SDS011;45045;45.440;9.178;2024-01-30T13:43:20;63.40;;;46.45;;
32399;SDS011;45045;45.440;9.178;2024-01-30T13:45:46;63.58;;;45.78;;
32399;SDS011;45045;45.440;9.178;2024-01-30T13:48:12;63.40;;;46.53;;
32399;SDS011;45045;45.440;9.178;2024-01-30T13:50:37;62.08;;;45.28;;
32399;SDS011;45045;45.440;9.178;2024-01-30T13:53:03;64.88;;;47.58;;
32399;SDS011;45045;45.440;9.178;2024-01-30T13:55:31;66.60;;;46.70;;
32399;SDS011;45045;45.440;9.178;2024-01-30T13:57:57;59.60;;;45.35;;
32399;SDS011;45045;45.440;9.178;2024-01-30T14:00:23;64.03;;;46.08;;
32399;SDS011;45045;45.440;9.178;2024-01-30T14:02:50;70.25;;;48.42;;
32399;SDS011;45045;45.440;9.178;2024-01-30T14:05:16;67.88;;;47.25;;
32399;SDS011;45045;45.440;9.178;2024-01-30T14:07:42;68.78;;;48.38;;
32399;SDS011;45045;45.440;9.178;2024-01-30T14:10:09;67.80;;;48.63;;
32399;SDS011;45045;45.440;9.178;2024-01-30T14:12:36;73.03;;;52.60;;
32399;SDS011;45045;45.440;9.178;2024-01-30T14:15:01;123.07;;;85.97;;
32399;SDS011;45045;45.440;9.178;2024-01-30T14:17:27;73.85;;;51.70;;